sensor_id;sensor_type;location;lat;lon;timestamp;pressure;altitude;pressure_sealevel;temperature;humidity
2397;BME280;1209;48.410;9.054;2023-09-08T00:00:57;96507.47;;;17.74;100.00
2397;BME280;1209;48.410;9.054;2023-09-08T00:03:22;96507.91;;;17.71;100.00
2397;BME280;1209;48.410;9.054;2023-09-08T00:05:48;96501.66;;;17.58;100.00
2397;BME280;1209;48.410;9.054;2023-09-08T00:08:13;96512.09;;;17.40;100.00
2397;BME280;1209;48.410;9.054;2023-09-08T00:10:38;96505.94;;;17.53;100.00
2397;BME280;1209;48.410;9.054;2023-09-08T00:13:04;96502.97;;;17.36;100.00
2397;BME280;1209;48.410;9.054;2023-09-08T00:15:29;96504.00;;;17.35;100.00
2397;BME280;1209;48.410;9.054;2023-09-08T00:17:54;96499.69;;;17.41;100.00
2397;BME280;1209;48.410;9.054;2023-09-08T00:20:22;96504.63;;;17.30;100.00
2397;BME280;1209;48.410;9.054;2023-09-08T00:22:47;96499.34;;;17.30;100.00
2397;BME280;1209;48.410;9.054;2023-09-08T00:25:13;96507.88;;;17.33;100.00
2397;BME280;1209;48.410;9.054;2023-09-08T00:27:38;96497.91;;;17.35;100.00
2397;BME280;1209;48.410;9.054;2023-09-08T00:30:03;96499.09;;;17.39;100.00
2397;BME280;1209;48.410;9.054;2023-09-08T00:32:29;96500.34;;;17.36;100.00
2397;BME280;1209;48.410;9.054;2023-09-08T00:34:54;96491.44;;;17.30;100.00
2397;BME280;1209;48.410;9.054;2023-09-08T00:37:19;96491.91;;;17.14;100.00
2397;BME280;1209;48.410;9.054;2023-09-08T00:39:45;96499.38;;;17.24;100.00
2397;BME280;1209;48.410;9.054;2023-09-08T00:42:10;96492.03;;;17.33;100.00
2397;BME280;1209;48.410;9.054;2023-09-08T00:44:35;96491.22;;;17.32;100.00
2397;BME280;1209;48.410;9.054;2023-09-08T00:47:01;96494.53;;;17.21;100.00
2397;BME280;1209;48.410;9.054;2023-09-08T00:49:26;96493.69;;;17.27;100.00
2397;BME280;1209;48.410;9.054;2023-09-08T00:51:53;96488.06;;;17.17;100.00
2397;BME280;1209;48.410;9.054;2023-09-08T00:54:18;96491.75;;;17.09;100.00
2397;BME280;1209;48.410;9.054;2023-09-08T00:56:44;96484.03;;;17.01;100.00
2397;BME280;1209;48.410;9.054;2023-09-08T00:59:11;96481.19;;;17.03;100.00
2397;BME280;1209;48.410;9.054;2023-09-08T01:01:37;96488.66;;;17.19;100.00
2397;BME280;1209;48.410;9.054;2023-09-08T01:04:02;96490.53;;;16.98;100.00
2397;BME280;1209;48.410;9.054;2023-09-08T01:06:27;96493.56;;;17.02;100.00
2397;BME280;1209;48.410;9.054;2023-09-08T01:08:54;96489.31;;;17.01;100.00
2397;BME280;1209;48.410;9.054;2023-09-08T01:11:20;96489.94;;;16.96;100.00
2397;BME280;1209;48.410;9.054;2023-09-08T01:13:46;96492.97;;;17.00;100.00
2397;BME280;1209;48.410;9.054;2023-09-08T01:16:12;96488.94;;;17.04;100.00
2397;BME280;1209;48.410;9.054;2023-09-08T01:18:37;96497.84;;;16.96;100.00
2397;BME280;1209;48.410;9.054;2023-09-08T01:21:10;96491.38;;;16.92;100.00
2397;BME280;1209;48.410;9.054;2023-09-08T01:26:10;96501.59;;;16.69;100.00
2397;BME280;1209;48.410;9.054;2023-09-08T01:28:39;96497.75;;;16.65;100.00
2397;BME280;1209;48.410;9.054;2023-09-08T01:31:05;96493.91;;;16.61;100.00
2397;BME280;1209;48.410;9.054;2023-09-08T01:33:31;96493.88;;;16.54;100.00
2397;BME280;1209;48.410;9.054;2023-09-08T01:35:56;96491.44;;;16.53;100.00
2397;BME280;1209;48.410;9.054;2023-09-08T01:38:23;96488.22;;;16.51;100.00
2397;BME280;1209;48.410;9.054;2023-09-08T01:40:49;96485.38;;;16.46;100.00
2397;BME280;1209;48.410;9.054;2023-09-08T01:43:14;96484.19;;;16.42;100.00
2397;BME280;1209;48.410;9.054;2023-09-08T01:45:39;96483.19;;;16.36;100.00
2397;BME280;1209;48.410;9.054;2023-09-08T01:48:05;96481.31;;;16.50;100.00
2397;BME280;1209;48.410;9.054;2023-09-08T01:50:30;96481.31;;;16.50;100.00
2397;BME280;1209;48.410;9.054;2023-09-08T01:52:55;96481.94;;;16.38;100.00
2397;BME280;1209;48.410;9.054;2023-09-08T01:55:21;96478.09;;;16.41;100.00
2397;BME280;1209;48.410;9.054;2023-09-08T01:57:46;96482.97;;;16.31;100.00
2397;BME280;1209;48.410;9.054;2023-09-08T02:00:12;96473.84;;;16.40;100.00
2397;BME280;1209;48.410;9.054;2023-09-08T02:02:38;96480.94;;;16.40;100.00
2397;BME280;1209;48.410;9.054;2023-09-08T02:05:03;96474.25;;;16.30;100.00
2397;BME280;1209;48.410;9.054;2023-09-08T02:07:29;96476.50;;;16.33;100.00
2397;BME280;1209;48.410;9.054;2023-09-08T02:09:54;96475.25;;;16.43;100.00
2397;BME280;1209;48.410;9.054;2023-09-08T02:12:21;96464.28;;;16.46;100.00
2397;BME280;1209;48.410;9.054;2023-09-08T02:14:46;96471.19;;;16.40;100.00
2397;BME280;1209;48.410;9.054;2023-09-08T02:17:11;96473.25;;;16.31;100.00
2397;BME280;1209;48.410;9.054;2023-09-08T02:19:36;96473.88;;;16.20;100.00
2397;BME280;1209;48.410;9.054;2023-09-08T02:22:02;96477.75;;;16.11;100.00
2397;BME280;1209;48.410;9.054;2023-09-08T02:24:27;96476.28;;;16.02;100.00
2397;BME280;1209;48.410;9.054;2023-09-08T02:26:52;96466.97;;;16.06;100.00
2397;BME280;1209;48.410;9.054;2023-09-08T02:29:18;96476.72;;;15.86;100.00
2397;BME280;1209;48.410;9.054;2023-09-08T02:31:44;96471.03;;;16.02;100.00
2397;BME280;1209;48.410;9.054;2023-09-08T02:34:09;96475.28;;;16.03;100.00
2397;BME280;1209;48.410;9.054;2023-09-08T02:36:36;96475.06;;;16.04;100.00
2397;BME280;1209;48.410;9.054;2023-09-08T02:39:01;96469.22;;;16.09;100.00
2397;BME280;1209;48.410;9.054;2023-09-08T02:41:27;96477.31;;;16.08;100.00
2397;BME280;1209;48.410;9.054;2023-09-08T02:43:52;96478.94;;;16.02;100.00
2397;BME280;1209;48.410;9.054;2023-09-08T02:46:17;96478.72;;;15.97;100.00
2397;BME280;1209;48.410;9.054;2023-09-08T02:48:43;96484.41;;;15.94;100.00
2397;BME280;1209;48.410;9.054;2023-09-08T02:51:08;96484.81;;;15.91;100.00
2397;BME280;1209;48.410;9.054;2023-09-08T02:53:33;96477.72;;;15.91;100.00
2397;BME280;1209;48.410;9.054;2023-09-08T02:55:59;96479.34;;;15.92;100.00
2397;BME280;1209;48.410;9.054;2023-09-08T02:58:26;96484.59;;;15.86;100.00
2397;BME280;1209;48.410;9.054;2023-09-08T03:00:52;96482.38;;;15.83;100.00
2397;BME280;1209;48.410;9.054;2023-09-08T03:03:18;96485.22;;;15.81;100.00
2397;BME280;1209;48.410;9.054;2023-09-08T03:05:44;96489.25;;;15.70;100.00
2397;BME280;1209;48.410;9.054;2023-09-08T03:08:09;96482.38;;;15.69;100.00
2397;BME280;1209;48.410;9.054;2023-09-08T03:10:34;96486.63;;;15.64;100.00
2397;BME280;1209;48.410;9.054;2023-09-08T03:13:00;96477.69;;;15.58;100.00
2397;BME280;1209;48.410;9.054;2023-09-08T03:15:26;96477.69;;;15.58;100.00
2397;BME280;1209;48.410;9.054;2023-09-08T03:17:56;96473.59;;;15.56;100.00
2397;BME280;1209;48.410;9.054;2023-09-08T03:20:23;96472.84;;;15.62;100.00
2397;BME280;1209;48.410;9.054;2023-09-08T03:22:49;96470.81;;;15.64;100.00
2397;BME280;1209;48.410;9.054;2023-09-08T03:25:14;96471.84;;;15.76;100.00
2397;BME280;1209;48.410;9.054;2023-09-08T03:27:40;96472.44;;;15.71;100.00
2397;BME280;1209;48.410;9.054;2023-09-08T03:30:06;96468.41;;;15.76;100.00
2397;BME280;1209;48.410;9.054;2023-09-08T03:32:32;96472.44;;;15.71;100.00
2397;BME280;1209;48.410;9.054;2023-09-08T03:34:57;96460.28;;;15.64;100.00
2397;BME280;1209;48.410;9.054;2023-09-08T03:37:22;96468.81;;;15.66;100.00
2397;BME280;1209;48.410;9.054;2023-09-08T03:39:47;96463.53;;;15.66;100.00
2397;BME280;1209;48.410;9.054;2023-09-08T03:42:13;96457.88;;;15.62;100.00
2397;BME280;1209;48.410;9.054;2023-09-08T03:44:38;96460.72;;;15.67;100.00
2397;BME280;1209;48.410;9.054;2023-09-08T03:47:04;96460.06;;;15.59;100.00
2397;BME280;1209;48.410;9.054;2023-09-08T03:49:30;96461.88;;;15.58;100.00
2397;BME280;1209;48.410;9.054;2023-09-08T03:51:55;96457.38;;;15.52;100.00
2397;BME280;1209;48.410;9.054;2023-09-08T03:54:21;96455.78;;;15.51;100.00
2397;BME280;1209;48.410;9.054;2023-09-08T03:56:46;96460.63;;;15.54;100.00
2397;BME280;1209;48.410;9.054;2023-09-08T03:59:11;96451.31;;;15.52;100.00
2397;BME280;1209;48.410;9.054;2023-09-08T04:01:36;96457.38;;;15.52;100.00
2397;BME280;1209;48.410;9.054;2023-09-08T04:04:02;96453.34;;;15.43;100.00
2397;BME280;1209;48.410;9.054;2023-09-08T04:06:27;96451.31;;;15.38;100.00
2397;BME280;1209;48.410;9.054;2023-09-08T04:08:53;96457.78;;;15.36;100.00
2397;BME280;1209;48.410;9.054;2023-09-08T04:11:18;96463.25;;;15.34;100.00
2397;BME280;1209;48.410;9.054;2023-09-08T04:13:44;96458.75;;;15.22;100.00
2397;BME280;1209;48.410;9.054;2023-09-08T04:16:09;96470.66;;;15.11;100.00
2397;BME280;1209;48.410;9.054;2023-09-08T04:18:35;96471.47;;;15.11;100.00
2397;BME280;1209;48.410;9.054;2023-09-08T04:21:00;96469.50;;;15.20;100.00
2397;BME280;1209;48.410;9.054;2023-09-08T04:23:25;96477.41;;;15.27;100.00
2397;BME280;1209;48.410;9.054;2023-09-08T04:25:51;96472.75;;;15.29;100.00
2397;BME280;1209;48.410;9.054;2023-09-08T04:28:16;96471.53;;;15.31;100.00
2397;BME280;1209;48.410;9.054;2023-09-08T04:30:41;96476.00;;;15.31;100.00
2397;BME280;1209;48.410;9.054;2023-09-08T04:33:07;96477.38;;;15.20;100.00
2397;BME280;1209;48.410;9.054;2023-09-08T04:35:32;96472.75;;;15.29;100.00
2397;BME280;1209;48.410;9.054;2023-09-08T04:37:57;96480.03;;;15.33;100.00
2397;BME280;1209;48.410;9.054;2023-09-08T04:40:22;96483.69;;;15.32;100.00
2397;BME280;1209;48.410;9.054;2023-09-08T04:42:48;96490.75;;;15.32;100.00
2397;BME280;1209;48.410;9.054;2023-09-08T04:45:13;96497.44;;;15.28;100.00
2397;BME280;1209;48.410;9.054;2023-09-08T04:47:39;96495.63;;;15.35;100.00
2397;BME280;1209;48.410;9.054;2023-09-08T04:50:04;96499.66;;;15.31;100.00
2397;BME280;1209;48.410;9.054;2023-09-08T04:52:30;96491.56;;;15.26;100.00
2397;BME280;1209;48.410;9.054;2023-09-08T04:54:55;96499.25;;;15.27;100.00
2397;BME280;1209;48.410;9.054;2023-09-08T04:57:20;96501.28;;;15.32;100.00
2397;BME280;1209;48.410;9.054;2023-09-08T04:59:45;96493.41;;;15.38;100.00
2397;BME280;1209;48.410;9.054;2023-09-08T05:02:11;96490.38;;;15.35;100.00
2397;BME280;1209;48.410;9.054;2023-09-08T05:04:36;96490.16;;;15.30;100.00
2397;BME280;1209;48.410;9.054;2023-09-08T05:07:02;96483.88;;;15.31;100.00
2397;BME280;1209;48.410;9.054;2023-09-08T05:09:27;96494.41;;;15.31;100.00
2397;BME280;1209;48.410;9.054;2023-09-08T05:11:52;96486.13;;;15.34;100.00
2397;BME280;1209;48.410;9.054;2023-09-08T05:14:18;96490.19;;;15.43;100.00
2397;BME280;1209;48.410;9.054;2023-09-08T05:16:43;96490.59;;;15.40;100.00
2397;BME280;1209;48.410;9.054;2023-09-08T05:19:12;96495.44;;;15.43;100.00
2397;BME280;1209;48.410;9.054;2023-09-08T05:21:38;96492.00;;;15.36;100.00
2397;BME280;1209;48.410;9.054;2023-09-08T05:24:05;96503.53;;;15.35;100.00
2397;BME280;1209;48.410;9.054;2023-09-08T05:26:30;96499.06;;;15.29;100.00
2397;BME280;1209;48.410;9.054;2023-09-08T05:28:56;96502.31;;;15.31;100.00
2397;BME280;1209;48.410;9.054;2023-09-08T05:31:21;96505.75;;;15.31;100.00
2397;BME280;1209;48.410;9.054;2023-09-08T05:33:46;96514.25;;;15.40;100.00
2397;BME280;1209;48.410;9.054;2023-09-08T05:36:12;96513.25;;;15.34;100.00
2397;BME280;1209;48.410;9.054;2023-09-08T05:38:37;96518.91;;;15.38;100.00
2397;BME280;1209;48.410;9.054;2023-09-08T05:41:02;96519.94;;;15.37;100.00
2397;BME280;1209;48.410;9.054;2023-09-08T05:43:28;96512.03;;;15.37;100.00
2397;BME280;1209;48.410;9.054;2023-09-08T05:45:53;96518.13;;;15.44;100.00
2397;BME280;1209;48.410;9.054;2023-09-08T05:48:18;96519.34;;;15.41;100.00
2397;BME280;1209;48.410;9.054;2023-09-08T05:50:44;96519.97;;;15.50;100.00
2397;BME280;1209;48.410;9.054;2023-09-08T05:53:09;96526.22;;;15.49;100.00
2397;BME280;1209;48.410;9.054;2023-09-08T05:55:35;96519.16;;;15.50;100.00
2397;BME280;1209;48.410;9.054;2023-09-08T05:58:00;96519.56;;;15.53;100.00
2397;BME280;1209;48.410;9.054;2023-09-08T06:00:26;96518.63;;;15.61;100.00
2397;BME280;1209;48.410;9.054;2023-09-08T06:02:51;96523.91;;;15.67;100.00
2397;BME280;1209;48.410;9.054;2023-09-08T06:05:17;96525.94;;;15.72;100.00
2397;BME280;1209;48.410;9.054;2023-09-08T06:07:42;96522.50;;;15.78;100.00
2397;BME280;1209;48.410;9.054;2023-09-08T06:10:08;96509.94;;;15.87;100.00
2397;BME280;1209;48.410;9.054;2023-09-08T06:12:33;96518.66;;;15.94;100.00
2397;BME280;1209;48.410;9.054;2023-09-08T06:14:58;96514.81;;;15.96;100.00
2397;BME280;1209;48.410;9.054;2023-09-08T06:17:24;96512.19;;;16.10;100.00
2397;BME280;1209;48.410;9.054;2023-09-08T06:19:49;96510.38;;;16.17;100.00
2397;BME280;1209;48.410;9.054;2023-09-08T06:22:14;96515.22;;;16.26;100.00
2397;BME280;1209;48.410;9.054;2023-09-08T06:24:40;96512.97;;;16.36;100.00
2397;BME280;1209;48.410;9.054;2023-09-08T06:27:05;96510.94;;;16.45;100.00
2397;BME280;1209;48.410;9.054;2023-09-08T06:29:31;96505.22;;;16.55;100.00
2397;BME280;1209;48.410;9.054;2023-09-08T06:31:56;96509.72;;;16.61;100.00
2397;BME280;1209;48.410;9.054;2023-09-08T06:34:22;96515.78;;;16.61;100.00
2397;BME280;1209;48.410;9.054;2023-09-08T06:36:48;96508.50;;;16.70;100.00
2397;BME280;1209;48.410;9.054;2023-09-08T06:39:13;96518.03;;;16.71;100.00
2397;BME280;1209;48.410;9.054;2023-09-08T06:41:38;96516.78;;;16.80;100.00
2397;BME280;1209;48.410;9.054;2023-09-08T06:44:04;96520.63;;;16.91;100.00
2397;BME280;1209;48.410;9.054;2023-09-08T06:46:29;96519.34;;;17.00;100.00
2397;BME280;1209;48.410;9.054;2023-09-08T06:48:55;96523.03;;;17.06;100.00
2397;BME280;1209;48.410;9.054;2023-09-08T06:51:20;96519.13;;;17.15;100.00
2397;BME280;1209;48.410;9.054;2023-09-08T06:53:54;96523.34;;;17.22;100.00
2397;BME280;1209;48.410;9.054;2023-09-08T06:56:20;96515.63;;;17.27;100.00
2397;BME280;1209;48.410;9.054;2023-09-08T06:58:45;96514.69;;;17.47;100.00
2397;BME280;1209;48.410;9.054;2023-09-08T07:01:12;96517.47;;;17.65;100.00
2397;BME280;1209;48.410;9.054;2023-09-08T07:03:37;96514.75;;;17.78;100.00
2397;BME280;1209;48.410;9.054;2023-09-08T07:06:02;96521.41;;;17.87;100.00
2397;BME280;1209;48.410;9.054;2023-09-08T07:08:29;96515.22;;;18.00;100.00
2397;BME280;1209;48.410;9.054;2023-09-08T07:10:55;96511.88;;;18.11;100.00
2397;BME280;1209;48.410;9.054;2023-09-08T07:13:20;96512.97;;;18.29;100.00
2397;BME280;1209;48.410;9.054;2023-09-08T07:15:45;96518.09;;;18.48;100.00
2397;BME280;1209;48.410;9.054;2023-09-08T07:18:11;96517.34;;;18.66;100.00
2397;BME280;1209;48.410;9.054;2023-09-08T07:20:36;96515.88;;;18.88;100.00
2397;BME280;1209;48.410;9.054;2023-09-08T07:23:01;96511.91;;;19.16;100.00
2397;BME280;1209;48.410;9.054;2023-09-08T07:25:27;96512.63;;;19.41;100.00
2397;BME280;1209;48.410;9.054;2023-09-08T07:27:52;96511.00;;;19.70;100.00
2397;BME280;1209;48.410;9.054;2023-09-08T07:30:19;96518.13;;;20.00;100.00
2397;BME280;1209;48.410;9.054;2023-09-08T07:32:44;96504.44;;;20.26;100.00
2397;BME280;1209;48.410;9.054;2023-09-08T07:35:10;96514.19;;;20.56;100.00
2397;BME280;1209;48.410;9.054;2023-09-08T07:37:39;96517.53;;;20.74;100.00
2397;BME280;1209;48.410;9.054;2023-09-08T07:40:06;96513.38;;;20.90;100.00
2397;BME280;1209;48.410;9.054;2023-09-08T07:42:31;96511.91;;;21.34;100.00
2397;BME280;1209;48.410;9.054;2023-09-08T07:44:56;96510.28;;;21.62;100.00
2397;BME280;1209;48.410;9.054;2023-09-08T07:47:22;96511.91;;;21.91;100.00
2397;BME280;1209;48.410;9.054;2023-09-08T07:49:48;96508.97;;;22.21;100.00
2397;BME280;1209;48.410;9.054;2023-09-08T07:52:13;96515.97;;;22.44;100.00
2397;BME280;1209;48.410;9.054;2023-09-08T07:54:39;96518.13;;;22.64;100.00
2397;BME280;1209;48.410;9.054;2023-09-08T07:57:04;96514.88;;;22.96;100.00
2397;BME280;1209;48.410;9.054;2023-09-08T07:59:29;96517.78;;;22.94;100.00
2397;BME280;1209;48.410;9.054;2023-09-08T08:01:55;96514.88;;;23.17;100.00
2397;BME280;1209;48.410;9.054;2023-09-08T08:04:20;96520.53;;;23.43;100.00
2397;BME280;1209;48.410;9.054;2023-09-08T08:06:45;96519.97;;;23.63;100.00
2397;BME280;1209;48.410;9.054;2023-09-08T08:09:12;96509.56;;;23.61;100.00
2397;BME280;1209;48.410;9.054;2023-09-08T08:11:37;96517.28;;;23.84;100.00
2397;BME280;1209;48.410;9.054;2023-09-08T08:14:03;96511.06;;;24.06;100.00
2397;BME280;1209;48.410;9.054;2023-09-08T08:16:28;96511.88;;;24.06;100.00
2397;BME280;1209;48.410;9.054;2023-09-08T08:18:53;96511.06;;;24.06;100.00
2397;BME280;1209;48.410;9.054;2023-09-08T08:21:19;96507.75;;;23.94;100.00
2397;BME280;1209;48.410;9.054;2023-09-08T08:23:44;96520.31;;;24.25;100.00
2397;BME280;1209;48.410;9.054;2023-09-08T08:26:09;96516.56;;;24.21;100.00
2397;BME280;1209;48.410;9.054;2023-09-08T08:28:35;96518.72;;;24.24;100.00
2397;BME280;1209;48.410;9.054;2023-09-08T08:31:00;96513.63;;;24.23;100.00
2397;BME280;1209;48.410;9.054;2023-09-08T08:33:25;96513.91;;;24.26;100.00
2397;BME280;1209;48.410;9.054;2023-09-08T08:35:52;96514.06;;;24.41;100.00
2397;BME280;1209;48.410;9.054;2023-09-08T08:38:18;96521.69;;;24.60;100.00
2397;BME280;1209;48.410;9.054;2023-09-08T08:40:43;96511.69;;;24.87;100.00
2397;BME280;1209;48.410;9.054;2023-09-08T08:43:09;96514.00;;;25.10;100.00
2397;BME280;1209;48.410;9.054;2023-09-08T08:45:34;96510.91;;;25.44;100.00
2397;BME280;1209;48.410;9.054;2023-09-08T08:48:03;96519.09;;;25.17;100.00
2397;BME280;1209;48.410;9.054;2023-09-08T08:50:29;96510.91;;;25.44;100.00
2397;BME280;1209;48.410;9.054;2023-09-08T08:52:55;96512.91;;;25.69;100.00
2397;BME280;1209;48.410;9.054;2023-09-08T08:55:22;96508.66;;;25.93;100.00
2397;BME280;1209;48.410;9.054;2023-09-08T08:57:48;96510.56;;;26.08;100.00
2397;BME280;1209;48.410;9.054;2023-09-08T09:00:14;96510.56;;;26.18;100.00
2397;BME280;1209;48.410;9.054;2023-09-08T09:02:41;96508.69;;;26.24;100.00
2397;BME280;1209;48.410;9.054;2023-09-08T09:05:13;96511.63;;;26.02;100.00
2397;BME280;1209;48.410;9.054;2023-09-08T09:07:41;96518.59;;;26.39;100.00
2397;BME280;1209;48.410;9.054;2023-09-08T09:10:07;96509.50;;;26.55;99.11
2397;BME280;1209;48.410;9.054;2023-09-08T09:12:33;96511.09;;;26.66;97.36
2397;BME280;1209;48.410;9.054;2023-09-08T09:14:59;96512.13;;;26.85;96.36
2397;BME280;1209;48.410;9.054;2023-09-08T09:17:25;96516.13;;;26.88;96.52
2397;BME280;1209;48.410;9.054;2023-09-08T09:19:50;96507.84;;;26.74;99.48
2397;BME280;1209;48.410;9.054;2023-09-08T09:22:20;96521.75;;;27.12;96.86
2397;BME280;1209;48.410;9.054;2023-09-08T09:24:46;96509.56;;;27.35;93.77
2397;BME280;1209;48.410;9.054;2023-09-08T09:27:12;96514.97;;;27.29;95.73
2397;BME280;1209;48.410;9.054;2023-09-08T09:29:44;96513.50;;;27.63;94.89
2397;BME280;1209;48.410;9.054;2023-09-08T09:32:11;96514.03;;;27.65;93.55
2397;BME280;1209;48.410;9.054;2023-09-08T09:34:47;96512.22;;;27.99;93.33
2397;BME280;1209;48.410;9.054;2023-09-08T09:37:14;96508.81;;;28.28;93.23
2397;BME280;1209;48.410;9.054;2023-09-08T09:39:39;96512.69;;;28.45;91.99
2397;BME280;1209;48.410;9.054;2023-09-08T09:42:04;96510.19;;;28.20;94.75
2397;BME280;1209;48.410;9.054;2023-09-08T09:44:30;96511.97;;;28.35;96.22
2397;BME280;1209;48.410;9.054;2023-09-08T09:46:55;96508.69;;;28.43;93.49
2397;BME280;1209;48.410;9.054;2023-09-08T09:49:21;96508.47;;;28.34;92.99
2397;BME280;1209;48.410;9.054;2023-09-08T09:51:48;96509.22;;;28.45;92.52
2397;BME280;1209;48.410;9.054;2023-09-08T09:54:14;96513.03;;;28.68;91.55
2397;BME280;1209;48.410;9.054;2023-09-08T09:56:40;96501.56;;;28.57;93.23
2397;BME280;1209;48.410;9.054;2023-09-08T09:59:08;96500.09;;;28.70;90.87
2397;BME280;1209;48.410;9.054;2023-09-08T10:01:35;96506.16;;;29.09;88.99
2397;BME280;1209;48.410;9.054;2023-09-08T10:04:02;96505.13;;;29.72;84.69
2397;BME280;1209;48.410;9.054;2023-09-08T10:06:31;96501.94;;;29.70;86.06
2397;BME280;1209;48.410;9.054;2023-09-08T10:08:59;96497.16;;;29.19;87.13
2397;BME280;1209;48.410;9.054;2023-09-08T10:11:28;96493.63;;;29.48;88.15
2397;BME280;1209;48.410;9.054;2023-09-08T10:13:58;96488.97;;;29.72;85.25
2397;BME280;1209;48.410;9.054;2023-09-08T10:16:26;96489.72;;;30.15;81.57
2397;BME280;1209;48.410;9.054;2023-09-08T10:18:53;96491.88;;;30.32;80.98
2397;BME280;1209;48.410;9.054;2023-09-08T10:21:21;96494.59;;;29.94;84.06
2397;BME280;1209;48.410;9.054;2023-09-08T10:24:02;96486.28;;;30.10;83.90
2397;BME280;1209;48.410;9.054;2023-09-08T10:26:30;96487.00;;;30.34;82.66
2397;BME280;1209;48.410;9.054;2023-09-08T10:28:57;96491.59;;;30.33;81.92
2397;BME280;1209;48.410;9.054;2023-09-08T10:31:25;96482.63;;;30.00;82.84
2397;BME280;1209;48.410;9.054;2023-09-08T10:33:53;96487.31;;;30.46;79.40
2397;BME280;1209;48.410;9.054;2023-09-08T10:36:19;96488.81;;;30.38;80.65
2397;BME280;1209;48.410;9.054;2023-09-08T10:38:44;96484.44;;;30.56;80.39
2397;BME280;1209;48.410;9.054;2023-09-08T10:43:44;96480.78;;;30.66;85.00
2397;BME280;1209;48.410;9.054;2023-09-08T10:46:10;96484.22;;;31.13;76.42
2397;BME280;1209;48.410;9.054;2023-09-08T10:48:43;96480.03;;;31.07;69.94
2397;BME280;1209;48.410;9.054;2023-09-08T10:51:16;96475.56;;;31.16;75.96
2397;BME280;1209;48.410;9.054;2023-09-08T10:53:42;96470.13;;;31.43;72.24
2397;BME280;1209;48.410;9.054;2023-09-08T10:56:08;96470.03;;;31.48;70.30
2397;BME280;1209;48.410;9.054;2023-09-08T10:58:35;96479.91;;;31.53;72.49
2397;BME280;1209;48.410;9.054;2023-09-08T11:01:03;96483.03;;;31.46;74.44
2397;BME280;1209;48.410;9.054;2023-09-08T11:06:10;96472.41;;;31.50;69.92
2397;BME280;1209;48.410;9.054;2023-09-08T11:08:38;96472.69;;;31.62;74.84
2397;BME280;1209;48.410;9.054;2023-09-08T11:11:04;96470.59;;;31.73;70.52
2397;BME280;1209;48.410;9.054;2023-09-08T11:13:29;96464.66;;;31.84;69.74
2397;BME280;1209;48.410;9.054;2023-09-08T11:15:55;96459.31;;;31.93;70.01
2397;BME280;1209;48.410;9.054;2023-09-08T11:18:29;96466.84;;;31.69;70.66
2397;BME280;1209;48.410;9.054;2023-09-08T11:20:56;96473.03;;;31.47;70.71
2397;BME280;1209;48.410;9.054;2023-09-08T11:23:22;96460.75;;;31.27;74.39
2397;BME280;1209;48.410;9.054;2023-09-08T11:25:49;96467.25;;;31.40;73.81
2397;BME280;1209;48.410;9.054;2023-09-08T11:28:16;96462.34;;;31.42;74.39
2397;BME280;1209;48.410;9.054;2023-09-08T11:30:42;96466.94;;;31.91;70.41
2397;BME280;1209;48.410;9.054;2023-09-08T11:33:18;96459.63;;;32.14;70.11
2397;BME280;1209;48.410;9.054;2023-09-08T11:35:47;96462.81;;;31.71;68.64
2397;BME280;1209;48.410;9.054;2023-09-08T11:38:12;96470.78;;;31.76;72.80
2397;BME280;1209;48.410;9.054;2023-09-08T11:40:38;96462.19;;;32.33;71.72
2397;BME280;1209;48.410;9.054;2023-09-08T11:43:05;96463.50;;;32.44;70.59
2397;BME280;1209;48.410;9.054;2023-09-08T11:45:31;96469.00;;;32.30;70.93
2397;BME280;1209;48.410;9.054;2023-09-08T11:47:58;96469.31;;;32.15;70.96
2397;BME280;1209;48.410;9.054;2023-09-08T11:50:24;96464.84;;;32.10;69.42
2397;BME280;1209;48.410;9.054;2023-09-08T11:52:51;96460.53;;;32.09;68.41
2397;BME280;1209;48.410;9.054;2023-09-08T11:55:18;96466.06;;;31.82;70.19
2397;BME280;1209;48.410;9.054;2023-09-08T11:57:49;96460.59;;;31.59;71.40
2397;BME280;1209;48.410;9.054;2023-09-08T12:00:16;96463.91;;;31.56;69.27
2397;BME280;1209;48.410;9.054;2023-09-08T12:02:44;96463.47;;;31.63;73.72
2397;BME280;1209;48.410;9.054;2023-09-08T12:05:20;96458.28;;;31.80;71.89
2397;BME280;1209;48.410;9.054;2023-09-08T12:07:47;96461.00;;;31.53;72.89
2397;BME280;1209;48.410;9.054;2023-09-08T12:10:13;96458.69;;;31.24;74.30
2397;BME280;1209;48.410;9.054;2023-09-08T12:12:52;96464.19;;;31.55;71.85
2397;BME280;1209;48.410;9.054;2023-09-08T12:15:41;96456.94;;;31.14;72.41
2397;BME280;1209;48.410;9.054;2023-09-08T12:18:11;96456.66;;;31.29;73.61
2397;BME280;1209;48.410;9.054;2023-09-08T12:20:38;96449.56;;;31.20;72.09
2397;BME280;1209;48.410;9.054;2023-09-08T12:23:06;96453.25;;;30.96;77.05
2397;BME280;1209;48.410;9.054;2023-09-08T12:25:33;96450.84;;;31.36;75.83
2397;BME280;1209;48.410;9.054;2023-09-08T12:27:59;96453.78;;;31.26;73.97
2397;BME280;1209;48.410;9.054;2023-09-08T12:30:25;96455.31;;;31.13;72.25
2397;BME280;1209;48.410;9.054;2023-09-08T12:33:01;96453.94;;;30.88;74.94
2397;BME280;1209;48.410;9.054;2023-09-08T12:35:26;96453.66;;;30.90;72.89
2397;BME280;1209;48.410;9.054;2023-09-08T12:38:00;96446.16;;;30.87;73.96
2397;BME280;1209;48.410;9.054;2023-09-08T12:40:27;96449.06;;;31.31;71.97
2397;BME280;1209;48.410;9.054;2023-09-08T12:42:53;96441.63;;;31.10;70.89
2397;BME280;1209;48.410;9.054;2023-09-08T12:45:20;96443.34;;;31.06;74.19
2397;BME280;1209;48.410;9.054;2023-09-08T12:47:45;96437.97;;;30.92;73.32
2397;BME280;1209;48.410;9.054;2023-09-08T12:50:11;96433.28;;;31.25;71.80
2397;BME280;1209;48.410;9.054;2023-09-08T12:52:38;96434.06;;;31.25;69.56
2397;BME280;1209;48.410;9.054;2023-09-08T12:55:03;96435.63;;;30.72;71.41
2397;BME280;1209;48.410;9.054;2023-09-08T12:57:29;96427.38;;;30.82;71.18
2397;BME280;1209;48.410;9.054;2023-09-08T12:59:55;96428.19;;;30.82;72.76
2397;BME280;1209;48.410;9.054;2023-09-08T13:02:20;96426.19;;;30.88;70.68
2397;BME280;1209;48.410;9.054;2023-09-08T13:04:46;96421.34;;;31.12;72.46
2397;BME280;1209;48.410;9.054;2023-09-08T13:07:14;96425.56;;;31.18;68.77
2397;BME280;1209;48.410;9.054;2023-09-08T13:09:40;96420.47;;;31.03;68.28
2397;BME280;1209;48.410;9.054;2023-09-08T13:12:05;96413.66;;;30.64;68.67
2397;BME280;1209;48.410;9.054;2023-09-08T13:14:31;96415.06;;;30.62;69.72
2397;BME280;1209;48.410;9.054;2023-09-08T13:16:56;96409.69;;;30.76;68.89